sensor_id;sensor_type;location;lat;lon;timestamp;pressure;altitude;pressure_sealevel;temperature;humidity
78064;BME280;67429;51.596;-3.264;2024-01-06T00:00:28;99054.17;;;4.19;100.00
78064;BME280;67429;51.596;-3.264;2024-01-06T00:02:54;99052.82;;;4.82;100.00
78064;BME280;67429;51.596;-3.264;2024-01-06T00:05:19;99055.86;;;4.61;100.00
78064;BME280;67429;51.596;-3.264;2024-01-06T00:07:45;99058.52;;;4.46;100.00
78064;BME280;67429;51.596;-3.264;2024-01-06T00:10:11;99065.88;;;4.55;100.00
78064;BME280;67429;51.596;-3.264;2024-01-06T00:12:36;99063.92;;;4.44;100.00
78064;BME280;67429;51.596;-3.264;2024-01-06T00:15:03;99062.95;;;4.34;100.00
78064;BME280;67429;51.596;-3.264;2024-01-06T00:17:28;99064.28;;;5.03;100.00
78064;BME280;67429;51.596;-3.264;2024-01-06T00:19:53;99066.57;;;3.70;100.00
78064;BME280;67429;51.596;-3.264;2024-01-06T00:22:19;99072.28;;;4.89;100.00
78064;BME280;67429;51.596;-3.264;2024-01-06T00:24:45;99075.70;;;5.85;100.00
78064;BME280;67429;51.596;-3.264;2024-01-06T00:27:12;99082.70;;;5.79;100.00
78064;BME280;67429;51.596;-3.264;2024-01-06T00:29:36;99089.61;;;5.10;100.00
78064;BME280;67429;51.596;-3.264;2024-01-06T00:32:03;99092.92;;;5.12;100.00
78064;BME280;67429;51.596;-3.264;2024-01-06T00:34:28;99090.45;;;6.32;100.00
78064;BME280;67429;51.596;-3.264;2024-01-06T00:36:54;99090.32;;;5.17;100.00
78064;BME280;67429;51.596;-3.264;2024-01-06T00:39:20;99091.45;;;4.47;100.00
78064;BME280;67429;51.596;-3.264;2024-01-06T00:41:45;99093.22;;;4.33;100.00
78064;BME280;67429;51.596;-3.264;2024-01-06T00:44:11;99094.54;;;3.52;100.00
78064;BME280;67429;51.596;-3.264;2024-01-06T00:46:37;99096.12;;;2.87;100.00
78064;BME280;67429;51.596;-3.264;2024-01-06T00:49:02;99096.31;;;2.67;100.00
78064;BME280;67429;51.596;-3.264;2024-01-06T00:51:28;99097.17;;;2.86;100.00
78064;BME280;67429;51.596;-3.264;2024-01-06T00:53:54;99096.86;;;3.11;100.00
78064;BME280;67429;51.596;-3.264;2024-01-06T00:56:21;99100.22;;;4.23;100.00
78064;BME280;67429;51.596;-3.264;2024-01-06T00:58:45;99095.59;;;3.92;100.00
78064;BME280;67429;51.596;-3.264;2024-01-06T01:01:11;99093.86;;;2.75;100.00
78064;BME280;67429;51.596;-3.264;2024-01-06T01:03:37;99096.16;;;3.52;100.00
78064;BME280;67429;51.596;-3.264;2024-01-06T01:06:03;99093.88;;;3.65;100.00
78064;BME280;67429;51.596;-3.264;2024-01-06T01:08:29;99097.91;;;3.80;100.00
78064;BME280;67429;51.596;-3.264;2024-01-06T01:10:54;99105.42;;;5.51;100.00
78064;BME280;67429;51.596;-3.264;2024-01-06T01:13:20;99104.87;;;5.58;100.00
78064;BME280;67429;51.596;-3.264;2024-01-06T01:15:45;99109.49;;;3.65;100.00
78064;BME280;67429;51.596;-3.264;2024-01-06T01:18:10;99111.89;;;4.20;100.00
78064;BME280;67429;51.596;-3.264;2024-01-06T01:20:36;99117.77;;;4.55;100.00
78064;BME280;67429;51.596;-3.264;2024-01-06T01:23:02;99118.68;;;5.12;100.00
78064;BME280;67429;51.596;-3.264;2024-01-06T01:25:28;99118.24;;;3.98;100.00
78064;BME280;67429;51.596;-3.264;2024-01-06T01:27:53;99119.36;;;4.10;100.00
78064;BME280;67429;51.596;-3.264;2024-01-06T01:30:19;99120.32;;;3.75;100.00
78064;BME280;67429;51.596;-3.264;2024-01-06T01:32:45;99124.85;;;4.04;100.00
78064;BME280;67429;51.596;-3.264;2024-01-06T01:35:11;99124.36;;;3.53;100.00
78064;BME280;67429;51.596;-3.264;2024-01-06T01:37:37;99124.67;;;3.82;100.00
78064;BME280;67429;51.596;-3.264;2024-01-06T01:40:07;99125.45;;;4.01;100.00
78064;BME280;67429;51.596;-3.264;2024-01-06T01:42:28;99130.47;;;4.22;100.00
78064;BME280;67429;51.596;-3.264;2024-01-06T01:44:53;99127.07;;;3.79;100.00
78064;BME280;67429;51.596;-3.264;2024-01-06T01:47:19;99133.23;;;3.61;100.00
78064;BME280;67429;51.596;-3.264;2024-01-06T01:49:46;99133.99;;;3.93;100.00
78064;BME280;67429;51.596;-3.264;2024-01-06T01:52:11;99137.47;;;3.44;100.00
78064;BME280;67429;51.596;-3.264;2024-01-06T01:54:38;99144.04;;;3.89;100.00
78064;BME280;67429;51.596;-3.264;2024-01-06T01:57:02;99151.15;;;4.19;100.00
78064;BME280;67429;51.596;-3.264;2024-01-06T01:59:28;99151.17;;;3.06;100.00
78064;BME280;67429;51.596;-3.264;2024-01-06T02:01:54;99158.52;;;3.50;100.00
78064;BME280;67429;51.596;-3.264;2024-01-06T02:04:19;99159.03;;;3.95;100.00
78064;BME280;67429;51.596;-3.264;2024-01-06T02:06:45;99164.23;;;3.78;100.00
78064;BME280;67429;51.596;-3.264;2024-01-06T02:09:11;99168.95;;;3.65;100.00
78064;BME280;67429;51.596;-3.264;2024-01-06T02:11:36;99167.45;;;3.80;100.00
78064;BME280;67429;51.596;-3.264;2024-01-06T02:14:02;99169.74;;;4.28;100.00
78064;BME280;67429;51.596;-3.264;2024-01-06T02:16:27;99174.36;;;4.87;100.00
78064;BME280;67429;51.596;-3.264;2024-01-06T02:18:53;99180.20;;;5.07;100.00
78064;BME280;67429;51.596;-3.264;2024-01-06T02:21:20;99181.32;;;4.10;100.00
78064;BME280;67429;51.596;-3.264;2024-01-06T02:23:44;99183.92;;;4.30;100.00
78064;BME280;67429;51.596;-3.264;2024-01-06T02:26:13;99187.25;;;5.07;100.00
78064;BME280;67429;51.596;-3.264;2024-01-06T02:28:36;99183.87;;;4.01;100.00
78064;BME280;67429;51.596;-3.264;2024-01-06T02:31:01;99187.98;;;4.54;100.00
78064;BME280;67429;51.596;-3.264;2024-01-06T02:33:27;99192.13;;;4.65;100.00
78064;BME280;67429;51.596;-3.264;2024-01-06T02:35:53;99200.45;;;4.86;100.00
78064;BME280;67429;51.596;-3.264;2024-01-06T02:38:19;99203.43;;;4.83;100.00
78064;BME280;67429;51.596;-3.264;2024-01-06T02:40:44;99205.65;;;5.48;100.00
78064;BME280;67429;51.596;-3.264;2024-01-06T02:43:10;99205.97;;;4.87;100.00
78064;BME280;67429;51.596;-3.264;2024-01-06T02:45:36;99210.38;;;4.78;100.00
78064;BME280;67429;51.596;-3.264;2024-01-06T02:48:07;99217.54;;;5.08;100.00
78064;BME280;67429;51.596;-3.264;2024-01-06T02:50:28;99217.82;;;4.49;100.00
78064;BME280;67429;51.596;-3.264;2024-01-06T02:52:53;99222.98;;;5.17;100.00
78064;BME280;67429;51.596;-3.264;2024-01-06T02:55:19;99223.39;;;5.44;100.00
78064;BME280;67429;51.596;-3.264;2024-01-06T02:57:45;99224.85;;;5.79;100.00
78064;BME280;67429;51.596;-3.264;2024-01-06T03:00:11;99217.65;;;4.54;100.00
78064;BME280;67429;51.596;-3.264;2024-01-06T03:02:36;99219.30;;;4.34;100.00
78064;BME280;67429;51.596;-3.264;2024-01-06T03:05:02;99220.31;;;4.40;100.00
78064;BME280;67429;51.596;-3.264;2024-01-06T03:07:30;99224.76;;;5.15;100.00
78064;BME280;67429;51.596;-3.264;2024-01-06T03:09:54;99232.77;;;4.10;100.00
78064;BME280;67429;51.596;-3.264;2024-01-06T03:12:19;99227.83;;;3.35;100.00
78064;BME280;67429;51.596;-3.264;2024-01-06T03:14:45;99230.38;;;3.80;100.00
78064;BME280;67429;51.596;-3.264;2024-01-06T03:17:11;99236.40;;;4.24;100.00
78064;BME280;67429;51.596;-3.264;2024-01-06T03:19:37;99235.68;;;4.23;100.00
78064;BME280;67429;51.596;-3.264;2024-01-06T03:22:02;99241.41;;;4.79;100.00
78064;BME280;67429;51.596;-3.264;2024-01-06T03:24:28;99239.04;;;4.29;100.00
78064;BME280;67429;51.596;-3.264;2024-01-06T03:26:54;99243.14;;;5.21;100.00
78064;BME280;67429;51.596;-3.264;2024-01-06T03:29:20;99247.43;;;5.24;100.00
78064;BME280;67429;51.596;-3.264;2024-01-06T03:31:45;99245.88;;;5.11;100.00
78064;BME280;67429;51.596;-3.264;2024-01-06T03:34:11;99248.20;;;5.43;100.00
78064;BME280;67429;51.596;-3.264;2024-01-06T03:36:37;99249.50;;;5.18;100.00
78064;BME280;67429;51.596;-3.264;2024-01-06T03:39:03;99253.60;;;4.72;100.00
78064;BME280;67429;51.596;-3.264;2024-01-06T03:41:28;99256.21;;;4.40;100.00
78064;BME280;67429;51.596;-3.264;2024-01-06T03:43:54;99258.05;;;3.44;100.00
78064;BME280;67429;51.596;-3.264;2024-01-06T03:46:21;99264.04;;;3.63;100.00
78064;BME280;67429;51.596;-3.264;2024-01-06T03:48:46;99267.13;;;4.34;100.00
78064;BME280;67429;51.596;-3.264;2024-01-06T03:51:12;99269.51;;;4.77;100.00
78064;BME280;67429;51.596;-3.264;2024-01-06T03:53:37;99271.71;;;3.61;100.00
78064;BME280;67429;51.596;-3.264;2024-01-06T03:56:04;99270.15;;;3.75;100.00
78064;BME280;67429;51.596;-3.264;2024-01-06T03:58:29;99268.60;;;2.74;100.00
78064;BME280;67429;51.596;-3.264;2024-01-06T04:00:55;99271.16;;;3.92;100.00
78064;BME280;67429;51.596;-3.264;2024-01-06T04:03:21;99272.05;;;3.97;100.00
78064;BME280;67429;51.596;-3.264;2024-01-06T04:05:48;99272.56;;;4.38;100.00
78064;BME280;67429;51.596;-3.264;2024-01-06T04:08:12;99278.88;;;4.36;100.00
78064;BME280;67429;51.596;-3.264;2024-01-06T04:10:39;99277.88;;;4.58;100.00
78064;BME280;67429;51.596;-3.264;2024-01-06T04:13:04;99282.97;;;4.50;100.00
78064;BME280;67429;51.596;-3.264;2024-01-06T04:15:29;99281.25;;;4.22;100.00
78064;BME280;67429;51.596;-3.264;2024-01-06T04:17:56;99279.28;;;3.00;100.00
78064;BME280;67429;51.596;-3.264;2024-01-06T04:20:21;99278.35;;;2.69;100.00
78064;BME280;67429;51.596;-3.264;2024-01-06T04:22:46;99273.20;;;2.57;100.00
78064;BME280;67429;51.596;-3.264;2024-01-06T04:25:12;99279.63;;;2.28;100.00
78064;BME280;67429;51.596;-3.264;2024-01-06T04:27:38;99280.64;;;2.40;100.00
78064;BME280;67429;51.596;-3.264;2024-01-06T04:30:04;99285.85;;;2.20;100.00
78064;BME280;67429;51.596;-3.264;2024-01-06T04:32:29;99285.81;;;2.09;100.00
78064;BME280;67429;51.596;-3.264;2024-01-06T04:34:55;99288.47;;;2.63;100.00
78064;BME280;67429;51.596;-3.264;2024-01-06T04:37:20;99291.36;;;2.78;100.00
78064;BME280;67429;51.596;-3.264;2024-01-06T04:39:46;99293.88;;;3.04;100.00
78064;BME280;67429;51.596;-3.264;2024-01-06T04:42:12;99293.72;;;2.62;100.00
78064;BME280;67429;51.596;-3.264;2024-01-06T04:44:38;99299.14;;;2.71;100.00
78064;BME280;67429;51.596;-3.264;2024-01-06T04:47:04;99306.01;;;2.98;100.00
78064;BME280;67429;51.596;-3.264;2024-01-06T04:49:29;99308.84;;;2.68;100.00
78064;BME280;67429;51.596;-3.264;2024-01-06T04:51:55;99307.02;;;2.76;100.00
78064;BME280;67429;51.596;-3.264;2024-01-06T04:54:21;99311.24;;;1.95;100.00
78064;BME280;67429;51.596;-3.264;2024-01-06T04:56:46;99311.78;;;2.87;100.00
78064;BME280;67429;51.596;-3.264;2024-01-06T04:59:12;99313.43;;;3.40;100.00
78064;BME280;67429;51.596;-3.264;2024-01-06T05:01:37;99320.74;;;3.72;100.00
78064;BME280;67429;51.596;-3.264;2024-01-06T05:04:03;99323.52;;;4.71;100.00
78064;BME280;67429;51.596;-3.264;2024-01-06T05:06:29;99328.36;;;4.38;100.00
78064;BME280;67429;51.596;-3.264;2024-01-06T05:08:55;99328.79;;;4.23;100.00
78064;BME280;67429;51.596;-3.264;2024-01-06T05:11:20;99332.97;;;3.31;100.00
78064;BME280;67429;51.596;-3.264;2024-01-06T05:13:46;99334.73;;;3.79;100.00
78064;BME280;67429;51.596;-3.264;2024-01-06T05:16:12;99336.60;;;3.11;100.00
78064;BME280;67429;51.596;-3.264;2024-01-06T05:18:37;99342.94;;;3.39;100.00
78064;BME280;67429;51.596;-3.264;2024-01-06T05:21:04;99340.30;;;3.42;100.00
78064;BME280;67429;51.596;-3.264;2024-01-06T05:23:29;99343.64;;;2.77;100.00
78064;BME280;67429;51.596;-3.264;2024-01-06T05:25:55;99344.41;;;2.72;100.00
78064;BME280;67429;51.596;-3.264;2024-01-06T05:28:21;99347.97;;;2.07;100.00
78064;BME280;67429;51.596;-3.264;2024-01-06T05:30:46;99347.58;;;2.34;100.00
78064;BME280;67429;51.596;-3.264;2024-01-06T05:33:12;99350.61;;;2.43;100.00
78064;BME280;67429;51.596;-3.264;2024-01-06T05:35:38;99353.37;;;2.25;100.00
78064;BME280;67429;51.596;-3.264;2024-01-06T05:38:04;99347.91;;;1.63;100.00
78064;BME280;67429;51.596;-3.264;2024-01-06T05:40:29;99351.84;;;2.73;100.00
78064;BME280;67429;51.596;-3.264;2024-01-06T05:42:56;99354.31;;;2.13;100.00
78064;BME280;67429;51.596;-3.264;2024-01-06T05:45:23;99356.14;;;1.69;100.00
78064;BME280;67429;51.596;-3.264;2024-01-06T05:47:47;99355.55;;;2.27;100.00
78064;BME280;67429;51.596;-3.264;2024-01-06T05:50:15;99355.80;;;3.41;100.00
78064;BME280;67429;51.596;-3.264;2024-01-06T05:52:40;99359.64;;;3.71;100.00
78064;BME280;67429;51.596;-3.264;2024-01-06T05:55:05;99363.06;;;3.20;100.00
78064;BME280;67429;51.596;-3.264;2024-01-06T05:57:31;99363.13;;;3.36;100.00
78064;BME280;67429;51.596;-3.264;2024-01-06T05:59:59;99369.11;;;1.42;100.00
78064;BME280;67429;51.596;-3.264;2024-01-06T06:02:22;99363.23;;;2.86;100.00
78064;BME280;67429;51.596;-3.264;2024-01-06T06:04:47;99365.75;;;3.24;100.00
78064;BME280;67429;51.596;-3.264;2024-01-06T06:07:13;99371.57;;;2.57;100.00
78064;BME280;67429;51.596;-3.264;2024-01-06T06:09:39;99378.80;;;2.46;100.00
78064;BME280;67429;51.596;-3.264;2024-01-06T06:12:05;99377.89;;;3.28;100.00
78064;BME280;67429;51.596;-3.264;2024-01-06T06:14:32;99385.47;;;3.64;100.00
78064;BME280;67429;51.596;-3.264;2024-01-06T06:16:58;99387.45;;;4.03;100.00
78064;BME280;67429;51.596;-3.264;2024-01-06T06:19:22;99389.81;;;3.56;100.00
78064;BME280;67429;51.596;-3.264;2024-01-06T06:21:48;99398.78;;;3.04;100.00
78064;BME280;67429;51.596;-3.264;2024-01-06T06:24:14;99404.12;;;3.39;100.00
78064;BME280;67429;51.596;-3.264;2024-01-06T06:26:39;99406.85;;;3.92;100.00
78064;BME280;67429;51.596;-3.264;2024-01-06T06:29:07;99410.08;;;4.40;100.00
78064;BME280;67429;51.596;-3.264;2024-01-06T06:31:31;99412.94;;;4.29;100.00
78064;BME280;67429;51.596;-3.264;2024-01-06T06:33:57;99415.17;;;4.75;100.00
78064;BME280;67429;51.596;-3.264;2024-01-06T06:36:23;99413.59;;;2.91;100.00
78064;BME280;67429;51.596;-3.264;2024-01-06T06:38:48;99413.54;;;3.92;100.00
78064;BME280;67429;51.596;-3.264;2024-01-06T06:41:14;99417.02;;;4.05;100.00
78064;BME280;67429;51.596;-3.264;2024-01-06T06:43:41;99416.79;;;3.83;100.00
78064;BME280;67429;51.596;-3.264;2024-01-06T06:46:06;99419.75;;;3.55;100.00
78064;BME280;67429;51.596;-3.264;2024-01-06T06:48:31;99421.26;;;4.57;100.00
78064;BME280;67429;51.596;-3.264;2024-01-06T06:50:57;99427.23;;;4.26;100.00
78064;BME280;67429;51.596;-3.264;2024-01-06T06:53:23;99429.82;;;4.71;100.00
78064;BME280;67429;51.596;-3.264;2024-01-06T06:55:49;99434.36;;;4.18;100.00
78064;BME280;67429;51.596;-3.264;2024-01-06T06:58:15;99438.33;;;3.61;100.00
78064;BME280;67429;51.596;-3.264;2024-01-06T07:00:40;99444.38;;;3.33;100.00
78064;BME280;67429;51.596;-3.264;2024-01-06T07:03:06;99447.02;;;4.23;100.00
78064;BME280;67429;51.596;-3.264;2024-01-06T07:05:32;99452.38;;;3.90;100.00
78064;BME280;67429;51.596;-3.264;2024-01-06T07:08:00;99458.87;;;3.01;100.00
78064;BME280;67429;51.596;-3.264;2024-01-06T07:10:23;99463.00;;;3.29;100.00
78064;BME280;67429;51.596;-3.264;2024-01-06T07:12:49;99465.59;;;3.36;100.00
78064;BME280;67429;51.596;-3.264;2024-01-06T07:15:15;99463.36;;;3.53;100.00
78064;BME280;67429;51.596;-3.264;2024-01-06T07:17:40;99469.41;;;2.84;100.00
78064;BME280;67429;51.596;-3.264;2024-01-06T07:20:07;99470.80;;;3.62;100.00
78064;BME280;67429;51.596;-3.264;2024-01-06T07:22:32;99471.32;;;3.72;100.00
78064;BME280;67429;51.596;-3.264;2024-01-06T07:24:57;99480.72;;;3.95;100.00
78064;BME280;67429;51.596;-3.264;2024-01-06T07:27:23;99480.48;;;3.80;100.00
78064;BME280;67429;51.596;-3.264;2024-01-06T07:29:49;99487.25;;;4.93;100.00
78064;BME280;67429;51.596;-3.264;2024-01-06T07:32:15;99493.46;;;5.17;100.00
78064;BME280;67429;51.596;-3.264;2024-01-06T07:34:41;99495.35;;;4.86;100.00
78064;BME280;67429;51.596;-3.264;2024-01-06T07:37:06;99496.36;;;3.78;100.00
78064;BME280;67429;51.596;-3.264;2024-01-06T07:39:32;99497.68;;;4.41;100.00
78064;BME280;67429;51.596;-3.264;2024-01-06T07:41:58;99501.39;;;3.04;100.00
78064;BME280;67429;51.596;-3.264;2024-01-06T07:44:24;99505.60;;;3.77;100.00
78064;BME280;67429;51.596;-3.264;2024-01-06T07:46:49;99507.07;;;3.33;100.00
78064;BME280;67429;51.596;-3.264;2024-01-06T07:49:15;99514.63;;;3.38;100.00
78064;BME280;67429;51.596;-3.264;2024-01-06T07:51:41;99516.60;;;3.79;100.00
78064;BME280;67429;51.596;-3.264;2024-01-06T07:54:08;99521.78;;;4.09;100.00
78064;BME280;67429;51.596;-3.264;2024-01-06T07:56:33;99526.76;;;3.93;100.00
78064;BME280;67429;51.596;-3.264;2024-01-06T07:58:58;99528.75;;;4.85;100.00
78064;BME280;67429;51.596;-3.264;2024-01-06T08:01:25;99529.21;;;5.08;100.00
78064;BME280;67429;51.596;-3.264;2024-01-06T08:03:50;99536.87;;;4.65;100.00
78064;BME280;67429;51.596;-3.264;2024-01-06T08:06:17;99540.57;;;3.36;100.00
78064;BME280;67429;51.596;-3.264;2024-01-06T08:08:42;99540.13;;;4.16;100.00
78064;BME280;67429;51.596;-3.264;2024-01-06T08:11:08;99543.25;;;4.33;100.00
78064;BME280;67429;51.596;-3.264;2024-01-06T08:13:35;99545.65;;;4.50;100.00
78064;BME280;67429;51.596;-3.264;2024-01-06T08:16:00;99556.15;;;3.56;100.00
78064;BME280;67429;51.596;-3.264;2024-01-06T08:18:25;99559.36;;;4.05;100.00
78064;BME280;67429;51.596;-3.264;2024-01-06T08:20:50;99565.34;;;4.23;100.00
78064;BME280;67429;51.596;-3.264;2024-01-06T08:23:16;99569.50;;;4.00;100.00
78064;BME280;67429;51.596;-3.264;2024-01-06T08:25:43;99568.64;;;4.97;100.00
78064;BME280;67429;51.596;-3.264;2024-01-06T08:28:08;99571.90;;;4.56;100.00
78064;BME280;67429;51.596;-3.264;2024-01-06T08:30:33;99578.47;;;4.75;100.00
78064;BME280;67429;51.596;-3.264;2024-01-06T08:32:59;99586.28;;;3.48;100.00
78064;BME280;67429;51.596;-3.264;2024-01-06T08:35:24;99590.90;;;2.85;100.00
78064;BME280;67429;51.596;-3.264;2024-01-06T08:37:50;99587.17;;;3.83;100.00
78064;BME280;67429;51.596;-3.264;2024-01-06T08:40:15;99584.93;;;4.52;100.00
78064;BME280;67429;51.596;-3.264;2024-01-06T08:42:41;99590.77;;;4.41;100.00
78064;BME280;67429;51.596;-3.264;2024-01-06T08:45:08;99588.41;;;4.49;100.00
78064;BME280;67429;51.596;-3.264;2024-01-06T08:47:33;99596.45;;;4.39;100.00
78064;BME280;67429;51.596;-3.264;2024-01-06T08:49:58;99601.72;;;4.18;100.00
78064;BME280;67429;51.596;-3.264;2024-01-06T08:52:24;99606.37;;;4.21;100.00
78064;BME280;67429;51.596;-3.264;2024-01-06T08:54:50;99605.42;;;4.57;100.00
78064;BME280;67429;51.596;-3.264;2024-01-06T08:57:16;99609.45;;;4.46;100.00
78064;BME280;67429;51.596;-3.264;2024-01-06T08:59:42;99611.52;;;4.47;100.00
78064;BME280;67429;51.596;-3.264;2024-01-06T09:02:07;99616.33;;;4.90;100.00
78064;BME280;67429;51.596;-3.264;2024-01-06T09:04:33;99627.08;;;3.96;100.00
78064;BME280;67429;51.596;-3.264;2024-01-06T09:06:59;99628.18;;;4.64;100.00
78064;BME280;67429;51.596;-3.264;2024-01-06T09:09:25;99636.39;;;4.79;100.00
78064;BME280;67429;51.596;-3.264;2024-01-06T09:11:50;99642.65;;;4.60;100.00
78064;BME280;67429;51.596;-3.264;2024-01-06T09:14:17;99645.95;;;3.69;100.00
78064;BME280;67429;51.596;-3.264;2024-01-06T09:16:41;99647.02;;;4.57;100.00
78064;BME280;67429;51.596;-3.264;2024-01-06T09:19:07;99654.33;;;4.34;100.00
78064;BME280;67429;51.596;-3.264;2024-01-06T09:21:32;99658.82;;;3.84;100.00
78064;BME280;67429;51.596;-3.264;2024-01-06T09:23:58;99660.67;;;3.66;100.00
78064;BME280;67429;51.596;-3.264;2024-01-06T09:26:24;99655.53;;;4.93;100.00
78064;BME280;67429;51.596;-3.264;2024-01-06T09:28:50;99662.39;;;4.45;100.00
78064;BME280;67429;51.596;-3.264;2024-01-06T09:31:17;99663.27;;;5.15;100.00
78064;BME280;67429;51.596;-3.264;2024-01-06T09:33:41;99669.85;;;5.74;100.00
78064;BME280;67429;51.596;-3.264;2024-01-06T09:36:07;99673.27;;;6.37;100.00
78064;BME280;67429;51.596;-3.264;2024-01-06T09:38:32;99673.52;;;6.84;100.00
78064;BME280;67429;51.596;-3.264;2024-01-06T09:40:58;99678.06;;;5.80;100.00
78064;BME280;67429;51.596;-3.264;2024-01-06T09:43:25;99682.18;;;4.74;100.00
78064;BME280;67429;51.596;-3.264;2024-01-06T09:45:56;99683.64;;;5.16;100.00
78064;BME280;67429;51.596;-3.264;2024-01-06T09:48:17;99687.04;;;5.29;100.00
78064;BME280;67429;51.596;-3.264;2024-01-06T09:50:43;99692.84;;;5.26;100.00
78064;BME280;67429;51.596;-3.264;2024-01-06T09:53:08;99693.80;;;5.94;100.00
78064;BME280;67429;51.596;-3.264;2024-01-06T09:55:34;99702.50;;;6.36;100.00
78064;BME280;67429;51.596;-3.264;2024-01-06T09:57:59;99704.70;;;6.56;100.00
78064;BME280;67429;51.596;-3.264;2024-01-06T10:00:24;99702.88;;;5.76;100.00
78064;BME280;67429;51.596;-3.264;2024-01-06T10:02:50;99698.70;;;5.94;100.00
78064;BME280;67429;51.596;-3.264;2024-01-06T10:05:16;99700.09;;;5.41;100.00
78064;BME280;67429;51.596;-3.264;2024-01-06T10:07:41;99696.86;;;5.86;100.00
78064;BME280;67429;51.596;-3.264;2024-01-06T10:10:07;99698.72;;;6.25;100.00
78064;BME280;67429;51.596;-3.264;2024-01-06T10:12:33;99704.64;;;6.07;100.00
78064;BME280;67429;51.596;-3.264;2024-01-06T10:14:58;99707.83;;;5.90;100.00
78064;BME280;67429;51.596;-3.264;2024-01-06T10:17:24;99710.13;;;5.78;100.00
78064;BME280;67429;51.596;-3.264;2024-01-06T10:19:50;99710.31;;;5.73;100.00
78064;BME280;67429;51.596;-3.264;2024-01-06T10:22:16;99710.03;;;5.09;100.00
78064;BME280;67429;51.596;-3.264;2024-01-06T10:24:41;99715.98;;;5.22;100.00
78064;BME280;67429;51.596;-3.264;2024-01-06T10:27:07;99724.56;;;4.20;100.00
78064;BME280;67429;51.596;-3.264;2024-01-06T10:29:33;99726.85;;;4.87;100.00
78064;BME280;67429;51.596;-3.264;2024-01-06T10:31:58;99728.09;;;5.23;100.00
78064;BME280;67429;51.596;-3.264;2024-01-06T10:34:24;99731.97;;;5.69;100.00
78064;BME280;67429;51.596;-3.264;2024-01-06T10:36:50;99735.04;;;5.43;100.00
78064;BME280;67429;51.596;-3.264;2024-01-06T10:39:15;99736.48;;;5.71;100.00
78064;BME280;67429;51.596;-3.264;2024-01-06T10:41:42;99735.39;;;6.12;100.00
78064;BME280;67429;51.596;-3.264;2024-01-06T10:44:07;99739.70;;;6.03;100.00
78064;BME280;67429;51.596;-3.264;2024-01-06T10:46:33;99737.82;;;6.00;100.00
78064;BME280;67429;51.596;-3.264;2024-01-06T10:48:58;99736.63;;;5.71;100.00
78064;BME280;67429;51.596;-3.264;2024-01-06T10:51:25;99736.21;;;5.28;100.00
78064;BME280;67429;51.596;-3.264;2024-01-06T10:53:50;99739.86;;;6.00;100.00
78064;BME280;67429;51.596;-3.264;2024-01-06T10:56:16;99744.11;;;6.44;100.00
78064;BME280;67429;51.596;-3.264;2024-01-06T10:58:45;99739.18;;;8.07;100.00
78064;BME280;67429;51.596;-3.264;2024-01-06T11:01:06;99739.78;;;7.79;100.00
78064;BME280;67429;51.596;-3.264;2024-01-06T11:03:32;99742.97;;;8.26;100.00
78064;BME280;67429;51.596;-3.264;2024-01-06T11:05:59;99743.36;;;8.37;100.00
78064;BME280;67429;51.596;-3.264;2024-01-06T11:08:25;99743.70;;;8.12;100.00
78064;BME280;67429;51.596;-3.264;2024-01-06T11:10:49;99741.94;;;6.94;100.00
78064;BME280;67429;51.596;-3.264;2024-01-06T11:13:20;99743.15;;;7.71;100.00
78064;BME280;67429;51.596;-3.264;2024-01-06T11:15:42;99745.91;;;8.60;100.00
78064;BME280;67429;51.596;-3.264;2024-01-06T11:18:06;99743.80;;;8.08;100.00
78064;BME280;67429;51.596;-3.264;2024-01-06T11:20:32;99742.16;;;7.61;100.00
78064;BME280;67429;51.596;-3.264;2024-01-06T11:25:24;99749.07;;;7.68;100.00
78064;BME280;67429;51.596;-3.264;2024-01-06T11:27:49;99744.58;;;7.30;100.00
78064;BME280;67429;51.596;-3.264;2024-01-06T11:30:20;99740.41;;;7.65;100.00
78064;BME280;67429;51.596;-3.264;2024-01-06T11:32:40;99742.81;;;7.71;100.00
78064;BME280;67429;51.596;-3.264;2024-01-06T11:35:07;99738.78;;;7.06;100.00
78064;BME280;67429;51.596;-3.264;2024-01-06T11:37:35;99744.03;;;8.47;100.00
78064;BME280;67429;51.596;-3.264;2024-01-06T11:39:57;99740.29;;;7.57;100.00
78064;BME280;67429;51.596;-3.264;2024-01-06T11:42:31;99746.11;;;8.11;100.00
78064;BME280;67429;51.596;-3.264;2024-01-06T11:44:51;99748.84;;;7.85;100.00
78064;BME280;67429;51.596;-3.264;2024-01-06T11:47:14;99752.55;;;8.66;100.00
78064;BME280;67429;51.596;-3.264;2024-01-06T11:49:40;99755.37;;;8.57;100.00
78064;BME280;67429;51.596;-3.264;2024-01-06T11:52:05;99751.85;;;6.67;100.00
78064;BME280;67429;51.596;-3.264;2024-01-06T11:54:31;99749.67;;;8.15;100.00
78064;BME280;67429;51.596;-3.264;2024-01-06T11:56:57;99748.67;;;9.63;100.00
78064;BME280;67429;51.596;-3.264;2024-01-06T11:59:22;99747.76;;;9.94;100.00
78064;BME280;67429;51.596;-3.264;2024-01-06T12:01:48;99752.80;;;9.01;100.00
78064;BME280;67429;51.596;-3.264;2024-01-06T12:04:14;99747.83;;;8.15;100.00
78064;BME280;67429;51.596;-3.264;2024-01-06T12:06:39;99742.69;;;7.65;100.00
78064;BME280;67429;51.596;-3.264;2024-01-06T12:09:05;99745.12;;;8.68;100.00
78064;BME280;67429;51.596;-3.264;2024-01-06T12:11:30;99746.22;;;8.50;100.00
78064;BME280;67429;51.596;-3.264;2024-01-06T12:13:56;99742.38;;;9.16;100.00
78064;BME280;67429;51.596;-3.264;2024-01-06T12:16:22;99743.83;;;9.41;100.00
78064;BME280;67429;51.596;-3.264;2024-01-06T12:18:47;99738.85;;;9.68;100.00
78064;BME280;67429;51.596;-3.264;2024-01-06T12:21:12;99739.62;;;10.17;100.00
78064;BME280;67429;51.596;-3.264;2024-01-06T12:23:38;99748.22;;;9.78;100.00
78064;BME280;67429;51.596;-3.264;2024-01-06T12:26:04;99750.69;;;9.65;100.00
78064;BME280;67429;51.596;-3.264;2024-01-06T12:28:29;99751.65;;;9.36;100.00
78064;BME280;67429;51.596;-3.264;2024-01-06T12:30:55;99753.97;;;8.36;100.00
78064;BME280;67429;51.596;-3.264;2024-01-06T12:33:21;99756.94;;;8.83;100.00
78064;BME280;67429;51.596;-3.264;2024-01-06T12:35:46;99752.04;;;8.35;100.00
78064;BME280;67429;51.596;-3.264;2024-01-06T12:38:12;99754.52;;;9.57;100.00
78064;BME280;67429;51.596;-3.264;2024-01-06T12:40:37;99753.02;;;7.76;100.00
78064;BME280;67429;51.596;-3.264;2024-01-06T12:43:03;99756.67;;;8.34;100.00